Jump to content


UNITED AIRLINES FLIGHT UA5596 FLOWN ON 01-07-2018 BY CAPTAIN JIM BOERMAN

Pilot StatsCaptain Jim Boerman (LDP136) • 4,997.7 total hours • 1,501 total flights [View Logbook]
FLIGHT DETAILS
StatusReceived and approved on 2018-01-07 at 13:01:00
Origin AirportChicago-OHare Intl (KORD) • Chicago, Illinois, United States (668 feet MSL)
Filed Flight PlanKORD KUBBS J547 FNT Q818 TANKO Q822 DERLO Q913 TOPPS Q947 DUVOK Q29 CETTY CYHZ
Destination AirportHalifax Intl (CYHZ) • Halifax, Nova Scotia, Canada (477 feet MSL)
Alternate AirportGreater Moncton Intl (CYQM) • Moncton, New Brunswick, Canada (232 feet MSL)
AirlineUnited Airlines
AircraftBoeing 737-700 | Winglets (73W / B737-700)
FS Aircraft UsedBoeing 737-724NGX United Airlines (Merger) Winglets
Cruising AltitudeFL330
Distance Flown1,073 nautical miles
Passengers Onboard100 passengers (73.53% full)
DEPARTURE DETAILS
Time Out09:25:31
Taxi Data140,503 lbs total with 22,178 lbs of fuel onboard
Takeoff Data09:40:47 (15 minutes after leaving gate/ramp) • 139,769 lbs total • 9° pitch at 155 knots
Departure METARKORD 071351Z 18015G20KT 10SM SCT050 BKN100 OVC120 M08/M14 A3016 RMK AO2 SLP225 T10781144
ARRIVAL DETAILS
Landing Data14:10:11 • 126,318 lbs total • 4° pitch doing 131 knots at a rate of -350.64 feet/minute with 7,793 lbs of fuel onboard
Time In14:15:38 (5 minutes after landing)
Ramp Weight126,118 lbs total
Total Fuel Used14,385 lbs
Total Block Time02:50:06 (2.8 hours) while 21 minutes were spent on the ground
Arrival METARCYHZ 071800Z 31022G31KT 15SM SCT024 M13/M18 A3000 RMK SC3 SLP173
MISCELLANEOUS DETAILS
LiveDISPATCH Version4.8.3.1
FS Version
FSUIPC Version5.12
OS VersionWindows 7 32-bit
Screen Resolution1920 x 1080
Pilot's CommentsNo Comments Reported
FLIGHT MAP